Huvudsida
METAR-TAF:

METAR-TAF

Flygplatser :

Luton Airport

Luton, England

latitud: 51-52N, longitud: 000-22W, höjd: 160 m

Aktuellt väderrapport

Denna rapport gjordes för 38 minuter sedan, klockan 21:50 UTC
Vind 7 kt från ost/sydost
Temperatur 13°C
Fuktighet 82%
Tryck 1036 hPa
Sikt 10 km eller mer

METAR: EGGW 272150Z AUTO 12007KT 9999 NCD 13/10 Q1036

Tid: 23:28 (22:28 UTC)

Väderprognos

Denna rapport gjordes för 5 timmar och 30 minuter sedan, klockan 16:58 UTC
Prognos gäller från 27 kl. 18 UTC till 28 kl. 18 UTC
Vind 7 kt från nordost
Sikt 10 km eller mer
Få moln på en höjd av 4500 ft
Blir
från 27 kl. 18 UTC till 27 kl. 21 UTC
Vind 10 kt från ost
Sannolikhet 30%
från 28 kl. 03 UTC till 28 kl. 06 UTC
Sikt: 8000 m

TAF: EGGW 271658Z 2718/2818 04007KT 9999 FEW045 BECMG 2718/2721 10010KT PROB30 2803/2806 8000

Aktuella väderrapporter och prognoser från 4000 flygplatser (METAR- och TAF-rapporter).

De tillgängliga stationerna syns som gula och röda prickar på kartan.

För musen över prickarna för att se namnen på stationerna.

Klicka sedan för att få väderrapporter och prognoser.

För att ändra kartan: Klicka på de gröna knapparna med ett svart kors på för att zooma in; den gröna knappen med ett streck på för att zooma ut; eller på de gröna pilarna för angränsande kartor.


METAR-TAF: